Time;durP1;ratioP1;P1;durP2;ratioP2;P2;SDS_P1;SDS_P2;PMS_P1;PMS_P2;Temp;Humidity;BMP_temperature;BMP_pressure;BME280_temperature;BME280_humidity;BME280_pressure;Samples;Min_cycle;Max_cycle;Signal;HPM_P1;HPM_P2
2022/11/29 00:00:30;;;;;;;;;;;6.10;99.90;;;;;;4995109;28;20053;-64
2022/11/29 00:02:57;;;;;;;9.63;5.35;;;6.10;99.90;;;;;;4996021;28;19956;-66
2022/11/29 00:05:24;;;;;;;5.90;4.60;;;6.10;99.90;;;;;;4993591;28;20222;-64
2022/11/29 00:07:50;;;;;;;7.00;4.80;;;6.10;99.90;;;;;;4994771;28;20147;-63
2022/11/29 00:10:17;;;;;;;;;;;6.00;99.90;;;;;;4993763;28;20144;-65
2022/11/29 00:12:47;;;;;;;6.88;4.90;;;6.00;99.90;;;;;;4994489;28;19951;-64
2022/11/29 00:15:14;;;;;;;5.60;4.93;;;6.00;99.90;;;;;;4993470;28;20112;-65
2022/11/29 00:17:40;;;;;;;6.40;4.80;;;6.00;99.90;;;;;;4995355;28;20128;-66
2022/11/29 00:20:09;;;;;;;5.80;4.78;;;6.00;99.90;;;;;;4994833;28;20519;-64
2022/11/29 00:22:36;;;;;;;6.55;4.72;;;5.90;99.90;;;;;;4993506;28;20042;-64
2022/11/29 00:25:04;;;;;;;5.75;4.35;;;6.00;99.90;;;;;;4991828;28;20575;-64
2022/11/29 00:27:31;;;;;;;4.70;3.95;;;5.90;99.90;;;;;;4994456;28;20058;-64
2022/11/29 00:29:58;;;;;;;4.55;3.80;;;5.90;99.90;;;;;;4996058;28;20396;-64
2022/11/29 00:32:25;;;;;;;4.63;3.35;;;5.90;99.90;;;;;;4995179;28;20647;-64
2022/11/29 00:34:51;;;;;;;;;;;5.80;99.90;;;;;;4994816;28;20343;-66
2022/11/29 00:37:18;;;;;;;5.38;4.10;;;5.80;99.90;;;;;;4994539;28;19936;-65
2022/11/29 00:39:45;;;;;;;7.45;4.20;;;5.80;99.90;;;;;;4980109;28;20057;-64
2022/11/29 00:42:12;;;;;;;;;;;5.80;99.90;;;;;;4995754;28;20157;-65
2022/11/29 00:44:39;;;;;;;3.67;3.22;;;5.80;99.90;;;;;;4991457;28;19952;-65
2022/11/29 00:47:05;;;;;;;6.78;4.20;;;5.70;99.90;;;;;;4992208;28;20112;-65
2022/11/29 00:49:32;;;;;;;3.97;3.58;;;5.70;99.90;;;;;;4996513;28;20368;-65
2022/11/29 00:51:59;;;;;;;3.60;3.28;;;5.70;99.90;;;;;;4994624;28;20135;-66
2022/11/29 00:54:25;;;;;;;4.60;4.20;;;5.70;99.90;;;;;;4993377;28;20049;-65
2022/11/29 00:56:52;;;;;;;5.25;4.35;;;5.70;99.90;;;;;;4996178;28;20243;-65
2022/11/29 00:59:19;;;;;;;5.35;4.18;;;5.70;99.90;;;;;;4990297;28;20045;-64
2022/11/29 01:01:46;;;;;;;4.13;3.60;;;5.70;99.90;;;;;;4984698;28;20514;-65
2022/11/29 01:04:12;;;;;;;;;;;5.70;99.90;;;;;;4993282;28;20503;-65
2022/11/29 01:06:39;;;;;;;5.05;3.95;;;5.60;99.90;;;;;;4991859;28;19929;-66
2022/11/29 01:09:06;;;;;;;;;;;5.60;99.90;;;;;;4997182;28;20581;-64
2022/11/29 01:11:33;;;;;;;4.32;3.42;;;5.60;99.90;;;;;;4993924;28;20218;-66
2022/11/29 01:14:02;;;;;;;5.80;3.28;;;5.60;99.90;;;;;;4996046;28;20305;-66
2022/11/29 01:16:30;;;;;;;3.47;2.85;;;5.60;99.90;;;;;;4984839;28;20046;-66
2022/11/29 01:18:57;;;;;;;8.45;3.35;;;5.60;99.90;;;;;;4994207;28;20334;-66
2022/11/29 01:21:24;;;;;;;;;;;5.60;99.90;;;;;;4995053;28;20486;-65
2022/11/29 01:23:52;;;;;;;4.97;3.10;;;5.60;99.90;;;;;;4991738;28;19932;-66
2022/11/29 01:26:30;;;;;;;3.25;2.53;;;5.50;99.90;;;;;;4993508;28;20563;-65
2022/11/29 01:28:58;;;;;;;3.67;2.60;;;5.50;99.90;;;;;;4995364;28;20107;-65
2022/11/29 01:31:31;;;;;;;3.88;3.13;;;5.50;99.90;;;;;;4996218;28;20507;-64
2022/11/29 01:34:01;;;;;;;2.60;2.40;;;5.50;99.90;;;;;;4985689;28;20103;-64
2022/11/29 01:36:28;;;;;;;2.75;2.45;;;5.50;99.90;;;;;;4993150;28;20305;-65
2022/11/29 01:38:58;;;;;;;2.47;2.28;;;5.50;99.90;;;;;;4974666;28;20053;-66
2022/11/29 01:41:27;;;;;;;2.75;2.33;;;5.50;99.90;;;;;;4992761;28;20069;-65
2022/11/29 01:44:12;;;;;;;2.20;2.00;;;5.50;99.90;;;;;;4992770;28;20050;-65
2022/11/29 01:46:41;;;;;;;3.65;2.72;;;5.50;99.90;;;;;;4992357;28;20564;-65
2022/11/29 01:49:15;;;;;;;3.28;2.38;;;5.50;99.90;;;;;;4993224;28;20562;-65
2022/11/29 01:51:51;;;;;;;2.47;2.05;;;5.50;99.90;;;;;;4991492;28;20038;-65
2022/11/29 01:54:19;;;;;;;2.35;2.00;;;5.50;99.90;;;;;;4993733;28;20609;-65
2022/11/29 01:56:48;;;;;;;2.17;1.98;;;5.50;99.90;;;;;;4993031;28;20046;-64
2022/11/29 01:59:19;;;;;;;2.15;1.95;;;5.50;99.90;;;;;;4991478;28;20053;-65
2022/11/29 02:01:45;;;;;;;4.03;2.15;;;5.50;99.90;;;;;;4990668;28;20549;-64
2022/11/29 02:04:12;;;;;;;;;;;5.50;99.90;;;;;;4992999;28;20088;-66
2022/11/29 02:06:41;;;;;;;1.95;1.77;;;5.50;99.90;;;;;;4992626;28;20241;-65
2022/11/29 02:09:22;;;;;;;2.42;1.70;;;5.50;99.90;;;;;;4994124;28;20647;-65
2022/11/29 02:12:08;;;;;;;2.25;1.67;;;5.50;99.90;;;;;;4990990;28;20046;-66
2022/11/29 02:14:46;;;;;;;4.18;2.45;;;5.50;99.90;;;;;;4988703;28;20046;-65
2022/11/29 02:17:49;;;;;;;3.00;2.15;;;5.50;99.90;;;;;;5006850;28;20054;-65
2022/11/29 02:20:30;;;;;;;3.85;1.48;;;5.50;99.90;;;;;;4913588;28;20055;-64
2022/11/29 02:22:56;;;;;;;2.47;1.65;;;5.40;99.90;;;;;;4982682;28;20530;-65
2022/11/29 02:25:35;;;;;;;1.70;1.60;;;5.40;99.90;;;;;;4991108;28;20049;-64
2022/11/29 02:28:39;;;;;;;4.60;3.10;;;5.40;99.90;;;;;;4994095;28;20206;-63
2022/11/29 02:31:27;;;;;;;3.47;2.67;;;5.40;99.90;;;;;;4992045;28;20531;-65
2022/11/29 02:34:05;;;;;;;2.83;2.53;;;5.40;99.90;;;;;;4993229;28;20477;-65
2022/11/29 02:36:38;;;;;;;3.22;2.50;;;5.40;99.90;;;;;;4991751;28;20096;-65
2022/11/29 02:39:30;;;;;;;3.63;2.60;;;5.40;99.90;;;;;;4992657;28;20073;-64
2022/11/29 02:42:15;;;;;;;3.63;2.83;;;5.40;99.90;;;;;;4994325;28;20060;-64
2022/11/29 02:45:01;;;;;;;3.90;3.25;;;5.30;99.90;;;;;;4988938;28;20411;-65
2022/11/29 02:47:56;;;;;;;4.35;3.78;;;5.40;99.90;;;;;;4991807;28;20515;-65
2022/11/29 02:50:45;;;;;;;4.68;3.08;;;5.30;99.90;;;;;;4990417;28;20367;-64
2022/11/29 02:53:50;;;;;;;5.13;3.72;;;5.30;99.90;;;;;;4991672;28;21065;-64
2022/11/29 02:56:27;;;;;;;6.32;3.53;;;5.30;99.90;;;;;;4992083;28;20117;-64
2022/11/29 02:59:10;;;;;;;6.32;3.95;;;5.30;99.90;;;;;;5008837;28;20042;-65
2022/11/29 03:01:39;;;;;;;5.18;3.67;;;5.30;99.90;;;;;;4990670;28;20164;-65
2022/11/29 03:04:34;;;;;;;3.90;3.50;;;5.30;99.90;;;;;;4991174;28;20954;-63
2022/11/29 03:07:14;;;;;;;4.50;3.97;;;5.30;99.90;;;;;;4981238;28;20232;-65
2022/11/29 03:10:07;;;;;;;4.63;3.45;;;5.30;99.90;;;;;;4993486;28;20041;-65
2022/11/29 03:12:49;;;;;;;3.45;3.08;;;5.30;99.90;;;;;;4987665;28;20050;-65
2022/11/29 03:15:21;;;;;;;4.15;3.40;;;5.30;99.90;;;;;;4989115;28;20050;-64
2022/11/29 03:17:56;;;;;;;3.90;3.10;;;5.30;99.90;;;;;;4990269;28;20478;-64
2022/11/29 03:20:50;;;;;;;3.70;3.03;;;5.30;99.90;;;;;;4991794;28;20489;-64
2022/11/29 03:23:30;;;;;;;7.15;4.47;;;5.30;99.90;;;;;;4989546;28;20594;-64
2022/11/29 03:26:15;;;;;;;4.38;3.40;;;5.30;99.90;;;;;;4992511;28;20048;-65
2022/11/29 03:29:06;;;;;;;7.57;3.30;;;5.30;99.90;;;;;;4989630;28;20389;-64
2022/11/29 03:31:51;;;;;;;5.07;3.35;;;5.30;99.90;;;;;;4996530;28;20413;-64
2022/11/29 03:34:21;;;;;;;6.30;4.03;;;5.30;99.90;;;;;;4993535;28;20437;-63
2022/11/29 03:37:11;;;;;;;6.53;3.45;;;5.30;99.90;;;;;;4995720;28;20439;-65
2022/11/29 03:39:53;;;;;;;4.95;3.17;;;5.20;99.90;;;;;;4991737;28;20520;-65
2022/11/29 03:42:56;;;;;;;4.00;2.88;;;5.30;99.90;;;;;;4997084;28;20140;-65
2022/11/29 03:45:28;;;;;;;4.10;3.40;;;5.30;99.90;;;;;;4975828;28;20145;-64
2022/11/29 03:48:16;;;;;;;8.80;3.72;;;5.20;99.90;;;;;;4979822;28;20119;-65
2022/11/29 03:50:55;;;;;;;4.05;3.33;;;5.20;99.90;;;;;;4996619;28;20042;-64
2022/11/29 03:53:35;;;;;;;4.63;3.40;;;5.20;99.90;;;;;;4995444;28;20128;-65
2022/11/29 03:56:23;;;;;;;6.00;4.30;;;5.20;99.90;;;;;;4996850;28;20048;-65
2022/11/29 03:58:56;;;;;;;3.40;2.85;;;5.20;99.90;;;;;;4995166;28;20044;-65
2022/11/29 04:01:55;;;;;;;3.90;2.80;;;5.20;99.90;;;;;;4994499;28;20116;-65
2022/11/29 04:04:41;;;;;;;4.40;2.70;;;5.20;99.90;;;;;;4989729;28;20053;-65
2022/11/29 04:07:31;;;;;;;3.80;3.05;;;5.20;99.90;;;;;;4975136;28;20332;-64
2022/11/29 04:10:13;;;;;;;5.30;2.80;;;5.20;99.90;;;;;;4993825;28;20086;-64
2022/11/29 04:12:58;;;;;;;3.20;2.35;;;5.10;99.90;;;;;;4993149;28;20038;-63
2022/11/29 04:16:03;;;;;;;9.00;3.70;;;5.10;99.90;;;;;;4995311;28;20877;-65
2022/11/29 04:19:07;;;;;;;3.85;2.40;;;5.10;99.90;;;;;;4978204;28;20862;-64
2022/11/29 04:21:55;;;;;;;2.92;2.17;;;5.10;99.90;;;;;;4994102;28;20076;-64
2022/11/29 04:25:08;;;;;;;3.42;2.50;;;5.10;99.90;;;;;;4995671;28;20140;-65
2022/11/29 04:27:56;;;;;;;3.30;1.92;;;5.00;99.90;;;;;;4993167;28;20041;-64
2022/11/29 04:30:38;;;;;;;3.00;2.35;;;5.00;99.90;;;;;;4996429;28;20045;-63
2022/11/29 04:33:27;;;;;;;3.78;2.22;;;5.00;99.90;;;;;;4993692;28;20042;-64
2022/11/29 04:36:13;;;;;;;6.05;2.00;;;5.00;99.90;;;;;;4976736;28;20124;-64
2022/11/29 04:39:06;;;;;;;3.10;1.95;;;5.00;99.90;;;;;;4992626;28;20450;-63
2022/11/29 04:41:36;;;;;;;5.13;2.30;;;5.00;99.90;;;;;;4993990;28;20351;-64
2022/11/29 04:44:14;;;;;;;5.28;2.35;;;5.00;99.90;;;;;;4995045;28;20068;-65
2022/11/29 04:46:53;;;;;;;2.42;1.83;;;5.00;99.90;;;;;;4995571;28;20052;-64
2022/11/29 04:49:56;;;;;;;3.53;1.90;;;5.00;99.90;;;;;;4993904;28;20055;-63
2022/11/29 04:52:56;;;;;;;2.88;1.83;;;5.00;99.90;;;;;;4993837;28;20092;-64
2022/11/29 04:55:34;;;;;;;5.20;1.92;;;5.00;99.90;;;;;;4992822;28;20112;-65
2022/11/29 04:58:24;;;;;;;5.10;2.50;;;5.00;99.90;;;;;;4994956;28;20605;-65
2022/11/29 05:01:11;;;;;;;2.42;2.00;;;5.00;99.90;;;;;;4993501;28;20129;-65
2022/11/29 05:03:42;;;;;;;4.03;2.22;;;5.00;99.90;;;;;;4992968;28;20084;-65
2022/11/29 05:06:36;;;;;;;2.65;2.03;;;5.00;99.90;;;;;;4978416;28;20045;-65
2022/11/29 05:09:34;;;;;;;6.57;3.08;;;5.00;99.90;;;;;;4993995;28;20037;-65
2022/11/29 05:12:33;;;;;;;5.13;2.42;;;5.00;99.90;;;;;;4992448;28;20056;-65
2022/11/29 05:15:43;;;;;;;15.02;3.70;;;5.00;99.90;;;;;;4992809;28;20429;-65
2022/11/29 05:18:33;;;;;;;2.85;2.40;;;5.00;99.90;;;;;;4993864;28;20053;-66
2022/11/29 05:21:35;;;;;;;4.40;2.60;;;5.00;99.90;;;;;;4995039;28;20053;-64
2022/11/29 05:24:27;;;;;;;5.72;3.20;;;5.00;99.90;;;;;;4993020;28;20487;-64
2022/11/29 05:27:16;;;;;;;5.68;2.45;;;5.00;99.90;;;;;;4993941;28;20041;-65
2022/11/29 05:29:58;;;;;;;4.50;2.33;;;5.00;99.90;;;;;;4994082;28;20145;-64
2022/11/29 05:32:43;;;;;;;3.55;2.35;;;5.00;99.90;;;;;;4991680;28;20048;-65
2022/11/29 05:35:35;;;;;;;3.88;2.60;;;5.00;99.90;;;;;;4994120;28;20081;-65
2022/11/29 05:38:07;;;;;;;4.35;2.63;;;5.00;99.90;;;;;;4989408;28;20107;-64
2022/11/29 05:40:52;;;;;;;7.93;2.63;;;5.00;99.90;;;;;;4993995;28;20511;-65
2022/11/29 05:43:44;;;;;;;7.82;3.65;;;5.00;99.90;;;;;;4993737;28;20318;-64
2022/11/29 05:46:28;;;;;;;2.90;1.92;;;5.00;99.90;;;;;;4992308;28;20431;-64
2022/11/29 05:49:04;;;;;;;3.95;2.50;;;5.00;99.90;;;;;;4993436;28;20049;-65
2022/11/29 05:51:40;;;;;;;4.30;2.78;;;5.10;99.90;;;;;;4990700;28;20277;-65
2022/11/29 05:54:46;;;;;;;3.25;2.35;;;5.10;99.90;;;;;;4990088;28;20045;-64
2022/11/29 05:57:28;;;;;;;4.78;1.90;;;5.10;99.90;;;;;;4975922;28;20526;-65
2022/11/29 05:59:58;;;;;;;4.82;2.03;;;5.10;99.90;;;;;;4977171;28;20045;-65
2022/11/29 06:02:28;;;;;;;4.18;2.08;;;5.10;99.90;;;;;;4991844;28;20033;-65
2022/11/29 06:05:12;;;;;;;4.60;1.90;;;5.10;99.90;;;;;;4988648;28;20048;-64
2022/11/29 06:08:00;;;;;;;1.70;1.60;;;5.10;99.90;;;;;;4989880;28;20046;-63
2022/11/29 06:10:31;;;;;;;2.83;1.90;;;5.10;99.90;;;;;;4991282;28;20613;-64
2022/11/29 06:13:10;;;;;;;5.30;2.42;;;5.10;99.90;;;;;;4992180;28;20041;-63
2022/11/29 06:16:06;;;;;;;4.85;2.53;;;5.10;99.90;;;;;;4990164;28;20055;-64
2022/11/29 06:18:36;;;;;;;3.05;1.70;;;5.10;99.90;;;;;;4992282;28;20732;-63
2022/11/29 06:21:29;;;;;;;4.55;2.15;;;5.10;99.90;;;;;;4989558;28;20050;-64
2022/11/29 06:24:22;;;;;;;2.47;1.92;;;5.10;99.90;;;;;;4992165;28;20319;-63
2022/11/29 06:27:04;;;;;;;5.00;2.67;;;5.10;99.90;;;;;;4991638;28;20053;-65
2022/11/29 06:29:37;;;;;;;5.25;3.03;;;5.10;99.90;;;;;;4993414;28;20563;-64
2022/11/29 06:32:49;;;;;;;8.73;2.58;;;5.10;99.90;;;;;;4992153;28;20671;-55
2022/11/29 06:35:44;;;;;;;4.85;2.28;;;5.10;99.90;;;;;;4915917;29;20047;-54
2022/11/29 06:38:23;;;;;;;7.85;2.28;;;5.10;99.90;;;;;;4913944;29;20056;-57
2022/11/29 06:40:50;;;;;;;5.20;2.40;;;5.10;99.90;;;;;;4975281;28;20498;-57
2022/11/29 06:43:21;;;;;;;8.88;3.53;;;5.10;99.90;;;;;;4989624;28;20060;-56
2022/11/29 06:45:56;;;;;;;11.48;2.92;;;5.10;99.90;;;;;;4994570;28;20546;-56
2022/11/29 06:48:26;;;;;;;7.00;2.80;;;5.10;99.90;;;;;;4991247;28;20046;-56
2022/11/29 06:51:06;;;;;;;10.80;2.78;;;5.10;99.90;;;;;;4993005;28;20063;-56
2022/11/29 06:53:41;;;;;;;7.38;2.88;;;5.20;99.90;;;;;;4991770;28;20038;-57
2022/11/29 06:56:52;;;;;;;6.25;2.83;;;5.20;99.90;;;;;;4990396;28;20053;-58
2022/11/29 06:59:46;;;;;;;7.95;2.95;;;5.20;99.90;;;;;;4906160;29;20071;-57
2022/11/29 07:02:48;;;;;;;7.47;2.50;;;5.20;99.90;;;;;;4989527;28;20452;-57
2022/11/29 07:05:17;;;;;;;6.53;3.17;;;5.20;99.90;;;;;;4986398;28;20045;-56
2022/11/29 07:07:45;;;;;;;10.95;3.70;;;5.20;99.90;;;;;;4987500;28;20510;-53
2022/11/29 07:10:18;;;;;;;10.02;3.08;;;5.20;99.90;;;;;;4993528;28;20616;-57
2022/11/29 07:12:46;;;;;;;6.05;2.47;;;5.20;99.90;;;;;;4989568;28;20054;-56
2022/11/29 07:15:18;;;;;;;5.45;2.55;;;5.20;99.90;;;;;;4992608;28;20052;-56
2022/11/29 07:18:10;;;;;;;8.40;3.13;;;5.30;99.90;;;;;;4982417;28;20372;-55
2022/11/29 07:21:14;;;;;;;8.07;3.20;;;5.30;99.90;;;;;;4991006;28;20167;-56
2022/11/29 07:24:04;;;;;;;5.43;2.75;;;5.30;99.90;;;;;;4990712;28;20170;-59
2022/11/29 07:27:06;;;;;;;9.13;3.40;;;5.30;99.90;;;;;;4991326;28;20133;-56
2022/11/29 07:29:40;;;;;;;11.07;3.60;;;5.30;99.90;;;;;;4968153;28;20133;-57
2022/11/29 07:32:25;;;;;;;10.32;4.28;;;5.30;99.90;;;;;;4973056;28;20053;-56
2022/11/29 07:35:14;;;;;;;5.82;3.42;;;5.40;99.90;;;;;;4989319;28;20500;-53
2022/11/29 07:38:13;;;;;;;10.35;3.92;;;5.40;99.90;;;;;;4991017;28;20116;-53
2022/11/29 07:40:50;;;;;;;4.43;3.05;;;5.40;99.90;;;;;;4992320;28;20046;-61
2022/11/29 07:43:26;;;;;;;9.95;3.72;;;5.40;99.90;;;;;;4973694;28;20527;-52
2022/11/29 07:45:54;;;;;;;8.48;4.00;;;5.50;99.90;;;;;;4990099;28;20681;-53
2022/11/29 07:48:21;;;;;;;11.02;4.65;;;5.50;99.90;;;;;;4990263;28;20037;-52
2022/11/29 07:50:48;;;;;;;10.35;3.90;;;5.50;99.90;;;;;;4985728;28;20172;-53
2022/11/29 07:53:16;;;;;;;;;;;5.50;99.90;;;;;;4989286;28;20042;-53
2022/11/29 07:55:44;;;;;;;12.07;3.65;;;5.50;99.90;;;;;;4988789;28;19931;-53
2022/11/29 07:58:12;;;;;;;13.00;4.95;;;5.60;99.90;;;;;;4990414;28;20056;-53
2022/11/29 08:00:41;;;;;;;14.50;4.07;;;5.50;99.90;;;;;;4986705;28;20056;-53
2022/11/29 08:03:09;;;;;;;14.50;4.82;;;5.60;99.90;;;;;;4990950;28;20290;-57
2022/11/29 08:05:37;;;;;;;23.00;5.75;;;5.60;99.90;;;;;;4992427;28;20743;-55
2022/11/29 08:08:05;;;;;;;10.88;4.82;;;5.60;99.90;;;;;;4989972;28;20033;-54
2022/11/29 08:10:31;;;;;;;14.98;5.72;;;5.60;99.90;;;;;;4989908;28;20057;-55
2022/11/29 08:12:58;;;;;;;;;;;5.70;99.90;;;;;;4993462;28;20076;-53
2022/11/29 08:15:25;;;;;;;11.00;5.03;;;5.70;99.90;;;;;;4988719;28;19925;-54
2022/11/29 08:17:52;;;;;;;12.85;4.88;;;5.70;99.90;;;;;;4992219;28;20057;-52
2022/11/29 08:20:19;;;;;;;18.88;6.05;;;5.70;99.90;;;;;;4990328;28;20056;-53
2022/11/29 08:22:57;;;;;;;6.93;4.85;;;5.70;99.90;;;;;;4992207;28;20052;-52
2022/11/29 08:25:25;;;;;;;15.00;4.97;;;5.70;99.90;;;;;;4992882;28;20261;-53
2022/11/29 08:27:53;;;;;;;10.05;5.28;;;5.70;99.90;;;;;;4994505;28;20046;-56
2022/11/29 08:30:23;;;;;;;10.60;5.40;;;5.80;99.90;;;;;;4995245;28;20691;-57
2022/11/29 08:32:51;;;;;;;11.63;5.30;;;5.70;99.90;;;;;;4978067;28;20050;-55
2022/11/29 08:35:20;;;;;;;11.05;6.22;;;5.80;99.90;;;;;;4991996;28;20504;-54
2022/11/29 08:39:50;;;;;;;16.35;6.07;;;5.70;99.90;;;;;;5051330;28;20195;-55
2022/11/29 08:42:17;;;;;;;;;;;5.70;99.90;;;;;;5048772;28;20637;-60
2022/11/29 08:44:43;;;;;;;16.00;6.43;;;5.80;99.90;;;;;;5049574;28;19928;-55
2022/11/29 08:50:02;;;;;;;15.80;6.55;;;5.80;99.90;;;;;;5046200;28;20288;-55
2022/11/29 08:55:17;;;;;;;10.30;5.82;;;5.80;99.90;;;;;;5046312;28;20259;-50
2022/11/29 08:57:45;;;;;;;14.07;5.97;;;5.80;99.90;;;;;;5049019;28;20044;-53
2022/11/29 09:00:13;;;;;;;13.98;7.45;;;5.80;99.90;;;;;;5046247;28;20059;-53
2022/11/29 09:02:39;;;;;;;12.05;5.95;;;5.90;99.90;;;;;;5046985;28;20048;-53
2022/11/29 09:05:07;;;;;;;16.30;7.55;;;5.90;99.90;;;;;;5047639;28;20134;-53
2022/11/29 09:07:34;;;;;;;17.60;6.72;;;5.90;99.90;;;;;;5045818;28;20388;-56
2022/11/29 09:10:06;;;;;;;12.77;6.53;;;5.90;99.90;;;;;;5046893;28;20099;-55
2022/11/29 09:12:34;;;;;;;11.43;6.60;;;5.90;99.90;;;;;;5045629;28;20052;-63
2022/11/29 09:15:03;;;;;;;11.45;6.97;;;5.90;99.90;;;;;;5054995;28;20102;-58
2022/11/29 09:17:30;;;;;;;8.32;6.60;;;6.00;99.90;;;;;;5042278;28;20314;-53
2022/11/29 09:19:57;;;;;;;14.38;7.82;;;6.00;99.90;;;;;;5047355;28;20045;-52
2022/11/29 09:22:24;;;;;;;14.90;6.32;;;6.00;99.90;;;;;;5046467;28;20127;-55
2022/11/29 09:24:50;;;;;;;;;;;6.10;99.90;;;;;;5042092;28;20597;-50
2022/11/29 09:27:17;;;;;;;14.27;7.07;;;6.10;99.90;;;;;;5047682;28;20480;-52
2022/11/29 09:29:44;;;;;;;11.88;6.97;;;6.10;99.90;;;;;;5048021;28;20045;-59
2022/11/29 09:32:11;;;;;;;23.50;8.45;;;6.10;99.90;;;;;;5053691;28;20440;-66
2022/11/29 09:34:37;;;;;;;12.70;7.20;;;6.10;99.90;;;;;;5045295;28;20083;-56
2022/11/29 09:37:04;;;;;;;9.93;7.70;;;6.10;99.90;;;;;;5045630;28;20044;-52
2022/11/29 09:39:31;;;;;;;12.13;6.55;;;6.10;99.90;;;;;;5044498;28;20467;-54
2022/11/29 09:42:19;;;;;;;12.98;8.13;;;6.10;99.90;;;;;;5046981;28;20426;-53
2022/11/29 09:45:03;;;;;;;15.65;8.45;;;6.10;99.90;;;;;;5044488;28;20072;-54
2022/11/29 09:48:01;;;;;;;12.20;8.18;;;6.20;99.90;;;;;;5048126;28;20068;-56
2022/11/29 09:50:41;;;;;;;12.00;7.13;;;6.20;99.90;;;;;;5034036;28;20593;-56
2022/11/29 09:53:25;;;;;;;17.85;8.57;;;6.20;99.90;;;;;;5032911;28;20037;-53
2022/11/29 09:56:04;;;;;;;17.27;8.90;;;6.20;99.90;;;;;;5033238;28;20051;-55
2022/11/29 09:58:42;;;;;;;14.80;7.95;;;6.20;99.90;;;;;;5029261;28;20045;-53
2022/11/29 10:01:16;;;;;;;14.45;7.38;;;6.20;99.90;;;;;;5040813;28;20071;-53
2022/11/29 10:03:51;;;;;;;12.80;7.68;;;6.10;99.90;;;;;;5033879;28;20045;-50
2022/11/29 10:06:29;;;;;;;12.20;7.43;;;6.10;99.90;;;;;;5032348;28;20753;-60
2022/11/29 10:09:10;;;;;;;12.68;7.03;;;6.10;99.90;;;;;;5030579;28;20075;-54
2022/11/29 10:12:00;;;;;;;10.68;6.93;;;6.20;99.90;;;;;;5035411;28;20041;-60
2022/11/29 10:14:49;;;;;;;12.05;6.65;;;6.20;99.90;;;;;;5034700;28;20110;-60
2022/11/29 10:17:23;;;;;;;12.10;6.75;;;6.20;99.90;;;;;;5032350;28;20049;-61
2022/11/29 10:20:03;;;;;;;18.75;7.57;;;6.20;99.90;;;;;;5034748;28;20044;-57
2022/11/29 10:22:59;;;;;;;10.77;5.78;;;6.20;99.90;;;;;;5032213;28;20157;-51
2022/11/29 10:25:40;;;;;;;14.63;7.03;;;6.20;99.90;;;;;;5034943;28;20045;-51
2022/11/29 10:28:14;;;;;;;10.30;5.65;;;6.20;99.90;;;;;;5033668;28;20045;-52
2022/11/29 10:30:42;;;;;;;13.90;6.78;;;6.20;99.90;;;;;;5034464;28;20044;-54
2022/11/29 10:33:29;;;;;;;15.15;7.22;;;6.20;99.90;;;;;;5033366;28;20479;-52
2022/11/29 10:36:03;;;;;;;15.18;6.25;;;6.20;99.90;;;;;;5037335;28;20075;-52
2022/11/29 10:38:30;;;;;;;8.57;5.65;;;6.30;99.90;;;;;;5034422;28;20041;-54
2022/11/29 10:41:06;;;;;;;15.40;6.57;;;6.20;99.90;;;;;;5037580;28;20317;-55
2022/11/29 10:43:36;;;;;;;15.50;7.43;;;6.30;99.90;;;;;;5034682;28;20507;-53
2022/11/29 10:46:04;;;;;;;20.52;8.30;;;6.30;99.90;;;;;;5032061;28;20040;-54
2022/11/29 10:48:32;;;;;;;16.63;7.38;;;6.30;99.90;;;;;;5033284;28;20500;-53
2022/11/29 10:51:01;;;;;;;17.25;7.18;;;6.30;99.90;;;;;;5033208;28;20129;-51
2022/11/29 10:53:35;;;;;;;12.48;7.55;;;6.30;99.90;;;;;;5038614;28;20041;-55
2022/11/29 10:56:21;;;;;;;9.88;6.07;;;6.30;99.90;;;;;;5035879;28;20507;-54
2022/11/29 10:59:07;;;;;;;16.05;6.93;;;6.30;99.90;;;;;;5034607;28;20455;-53
2022/11/29 11:01:41;;;;;;;9.98;5.95;;;6.30;99.90;;;;;;5030736;28;20292;-55
2022/11/29 11:04:24;;;;;;;10.32;5.28;;;6.40;99.90;;;;;;5032819;28;20052;-54
2022/11/29 11:06:59;;;;;;;14.07;6.35;;;6.40;99.90;;;;;;5034683;28;20584;-53
2022/11/29 11:09:46;;;;;;;8.27;5.28;;;6.40;99.90;;;;;;5032913;28;20119;-54
2022/11/29 11:12:13;;;;;;;11.13;5.05;;;6.40;99.90;;;;;;5032788;28;20052;-55
2022/11/29 11:14:40;;;;;;;6.05;4.38;;;6.40;99.90;;;;;;5034912;28;20552;-50
2022/11/29 11:17:28;;;;;;;14.73;5.95;;;6.40;99.90;;;;;;5031459;28;20229;-53
2022/11/29 11:20:04;;;;;;;13.40;4.55;;;6.50;99.90;;;;;;5032236;28;20499;-52
2022/11/29 11:22:32;;;;;;;8.43;4.50;;;6.50;99.90;;;;;;5030365;28;20331;-54
2022/11/29 11:25:06;;;;;;;13.93;4.38;;;6.60;99.90;;;;;;5031626;28;20051;-52
2022/11/29 11:27:38;;;;;;;9.52;4.22;;;6.60;99.90;;;;;;5029779;28;20044;-54
2022/11/29 11:30:21;;;;;;;12.05;4.63;;;6.60;99.90;;;;;;5033622;28;20049;-53
2022/11/29 11:33:25;;;;;;;11.30;4.75;;;6.60;99.90;;;;;;5032446;28;20129;-52
2022/11/29 11:36:06;;;;;;;12.88;4.63;;;6.70;99.90;;;;;;5030262;28;20135;-54
2022/11/29 11:38:35;;;;;;;11.35;3.97;;;6.60;99.90;;;;;;5030546;28;20449;-52
2022/11/29 11:41:03;;;;;;;11.88;4.15;;;6.70;99.90;;;;;;5032258;28;20051;-53
2022/11/29 11:43:31;;;;;;;8.40;4.50;;;6.70;99.90;;;;;;5030482;28;20324;-53
2022/11/29 11:45:58;;;;;;;11.93;4.10;;;6.70;99.90;;;;;;5032964;28;20044;-54
2022/11/29 11:48:25;;;;;;;;;;;6.60;99.90;;;;;;5032227;28;20191;-52
2022/11/29 11:50:55;;;;;;;13.80;4.22;;;6.70;99.90;;;;;;5023994;28;19932;-52
2022/11/29 11:53:26;;;;;;;13.95;5.13;;;6.70;99.90;;;;;;5032168;28;20151;-53
2022/11/29 11:56:09;;;;;;;18.20;6.80;;;6.70;99.90;;;;;;5031960;28;20158;-51
2022/11/29 11:58:46;;;;;;;14.57;6.82;;;6.60;99.90;;;;;;5032908;28;20037;-53
2022/11/29 12:01:24;;;;;;;15.88;5.22;;;6.60;99.90;;;;;;5032138;28;20041;-52
2022/11/29 12:04:13;;;;;;;10.25;4.72;;;6.60;99.90;;;;;;5027517;28;20767;-51
2022/11/29 12:07:03;;;;;;;14.63;6.18;;;6.50;99.90;;;;;;5031583;28;20465;-54
2022/11/29 12:09:53;;;;;;;12.57;5.63;;;6.50;99.90;;;;;;5030483;28;20117;-54
2022/11/29 12:12:28;;;;;;;15.43;6.30;;;6.50;99.90;;;;;;5038411;28;20403;-53
2022/11/29 12:15:05;;;;;;;17.13;5.95;;;6.50;99.90;;;;;;5028609;28;20046;-53
2022/11/29 12:17:51;;;;;;;8.50;5.88;;;6.40;99.90;;;;;;5029374;28;20398;-54
2022/11/29 12:20:29;;;;;;;12.35;6.43;;;6.40;99.90;;;;;;5031936;28;20839;-56
2022/11/29 12:23:18;;;;;;;15.98;6.78;;;6.40;99.90;;;;;;5028654;28;20599;-53
2022/11/29 12:25:59;;;;;;;10.07;5.20;;;6.40;99.90;;;;;;5034221;28;20081;-54
2022/11/29 12:28:33;;;;;;;14.32;5.70;;;6.30;99.90;;;;;;5032544;28;20045;-55
2022/11/29 12:31:24;;;;;;;10.25;5.78;;;6.30;99.90;;;;;;5031142;28;20122;-52
2022/11/29 12:34:24;;;;;;;16.48;6.68;;;6.30;99.90;;;;;;5030657;28;20049;-54
2022/11/29 12:37:05;;;;;;;14.23;5.55;;;6.30;99.90;;;;;;5031127;28;20037;-52
2022/11/29 12:39:44;;;;;;;11.88;6.00;;;6.30;99.90;;;;;;5031774;28;20127;-57
2022/11/29 12:42:51;;;;;;;16.13;6.57;;;6.30;99.90;;;;;;5032365;28;20526;-56
2022/11/29 12:45:51;;;;;;;16.00;6.03;;;6.30;99.90;;;;;;5029669;28;20045;-54
2022/11/29 12:48:43;;;;;;;13.20;4.85;;;6.30;99.90;;;;;;5034227;28;20160;-54
2022/11/29 12:51:31;;;;;;;16.40;5.90;;;6.30;99.90;;;;;;5030387;28;20045;-53
2022/11/29 12:54:37;;;;;;;15.57;5.80;;;6.30;99.90;;;;;;5031562;28;20047;-54
2022/11/29 12:57:27;;;;;;;10.85;4.72;;;6.30;99.90;;;;;;5030349;28;20161;-55
2022/11/29 13:00:07;;;;;;;16.88;6.55;;;6.30;99.90;;;;;;5029833;28;20740;-55
2022/11/29 13:02:53;;;;;;;14.10;6.18;;;6.30;99.90;;;;;;5027336;28;20852;-53
2022/11/29 13:05:49;;;;;;;18.17;4.75;;;6.30;99.90;;;;;;5029713;28;20045;-53
2022/11/29 13:08:54;;;;;;;8.52;5.28;;;6.30;99.90;;;;;;5029567;28;20051;-53
2022/11/29 13:11:28;;;;;;;8.52;4.10;;;6.30;99.90;;;;;;5029504;28;20061;-54
2022/11/29 13:14:10;;;;;;;6.60;3.65;;;6.30;99.90;;;;;;5028573;28;20059;-53
2022/11/29 13:17:00;;;;;;;4.40;2.80;;;6.30;99.90;;;;;;5029733;28;20049;-55
2022/11/29 13:19:43;;;;;;;15.63;5.13;;;6.30;99.90;;;;;;5030262;28;20369;-51
2022/11/29 13:22:42;;;;;;;9.00;3.30;;;6.30;99.90;;;;;;5032212;28;20044;-55
2022/11/29 13:25:17;;;;;;;6.60;3.35;;;6.20;99.90;;;;;;5033425;28;20127;-54
2022/11/29 13:27:59;;;;;;;7.95;2.85;;;6.30;99.90;;;;;;5032906;28;20567;-51
2022/11/29 13:30:26;;;;;;;6.97;2.85;;;6.30;99.90;;;;;;5032510;28;20133;-54
2022/11/29 13:33:13;;;;;;;8.50;3.33;;;6.30;99.90;;;;;;5033755;28;20312;-55
2022/11/29 13:36:01;;;;;;;12.02;3.10;;;6.30;99.90;;;;;;5032359;28;20052;-54
2022/11/29 13:38:53;;;;;;;9.23;3.15;;;6.30;99.90;;;;;;5035925;28;20265;-52
2022/11/29 13:41:57;;;;;;;8.90;3.00;;;6.30;99.90;;;;;;5031580;28;20588;-54
2022/11/29 13:44:40;;;;;;;8.35;2.65;;;6.30;99.90;;;;;;5033184;28;20204;-53
2022/11/29 13:47:13;;;;;;;7.07;2.65;;;6.30;99.90;;;;;;5033727;28;20510;-53
2022/11/29 13:50:01;;;;;;;4.57;2.58;;;6.30;99.90;;;;;;5035614;28;20405;-52
2022/11/29 13:52:27;;;;;;;;;;;6.30;99.90;;;;;;5034210;28;20051;-56
2022/11/29 13:55:28;;;;;;;5.35;2.33;;;6.20;99.90;;;;;;5031633;28;20237;-53
2022/11/29 13:58:05;;;;;;;8.10;2.97;;;6.20;99.90;;;;;;5030424;28;20562;-55
2022/11/29 14:00:51;;;;;;;6.55;3.05;;;6.20;99.90;;;;;;5033715;28;20040;-53
2022/11/29 14:03:18;;;;;;;4.15;2.75;;;6.20;99.90;;;;;;5035710;28;20072;-54
2022/11/29 14:05:47;;;;;;;8.70;2.97;;;6.20;99.90;;;;;;5033742;28;20037;-54